Time;durP1;ratioP1;P1;durP2;ratioP2;P2;SDS_P1;SDS_P2;PMS_P1;PMS_P2;Temp;Humidity;BMP_temperature;BMP_pressure;BME280_temperature;BME280_humidity;BME280_pressure;Samples;Min_cycle;Max_cycle;Signal;HPM_P1;HPM_P2
2022/12/02 00:00:23;;;;;;;57.75;32.47;;;3.80;99.90;;;;;;5055751;28;20056;-47
2022/12/02 00:02:50;;;;;;;55.75;31.60;;;3.80;99.90;;;;;;5055601;28;20045;-49
2022/12/02 00:05:17;;;;;;;56.80;30.30;;;3.80;99.90;;;;;;5055698;28;20048;-42
2022/12/02 00:07:46;;;;;;;63.03;34.47;;;3.70;99.90;;;;;;5037944;28;20049;-46
2022/12/02 00:10:24;;;;;;;56.55;32.05;;;3.70;99.90;;;;;;5050244;28;20048;-43
2022/12/02 00:12:50;;;;;;;53.70;30.08;;;3.70;99.90;;;;;;5053944;28;20044;-44
2022/12/02 00:15:44;;;;;;;55.45;30.77;;;3.70;99.90;;;;;;5055150;28;20101;-44
2022/12/02 00:18:12;;;;;;;50.88;29.10;;;3.70;99.90;;;;;;5054895;28;20048;-42
2022/12/02 00:20:38;;;;;;;53.08;29.85;;;3.60;99.90;;;;;;5056401;28;20056;-42
2022/12/02 00:23:04;;;;;;;52.38;30.17;;;3.60;99.90;;;;;;5055904;28;20151;-48
2022/12/02 00:25:30;;;;;;;52.72;29.73;;;3.50;99.90;;;;;;5055776;28;20044;-47
2022/12/02 00:27:57;;;;;;;54.58;28.83;;;3.50;99.90;;;;;;5055761;28;20048;-49
2022/12/02 00:30:22;;;;;;;51.35;29.10;;;3.40;99.90;;;;;;5056288;28;20131;-48
2022/12/02 00:32:48;;;;;;;52.60;28.77;;;3.40;99.90;;;;;;5054965;28;20518;-42
2022/12/02 00:35:15;;;;;;;55.33;29.88;;;3.30;99.90;;;;;;5053764;28;20052;-46
2022/12/02 00:37:41;;;;;;;52.95;29.10;;;3.30;99.90;;;;;;5055372;28;20091;-45
2022/12/02 00:40:07;;;;;;;52.95;27.92;;;3.30;99.90;;;;;;5055529;28;20139;-43
2022/12/02 00:42:32;;;;;;;56.08;32.08;;;3.30;99.90;;;;;;5055528;28;20106;-45
2022/12/02 00:47:42;;;;;;;51.40;27.83;;;3.20;99.90;;;;;;5053657;28;20440;-43
2022/12/02 00:50:09;;;;;;;49.85;28.50;;;3.20;99.90;;;;;;5055820;28;20044;-42
2022/12/02 00:52:34;;;;;;;55.00;29.77;;;3.20;99.90;;;;;;5054940;28;20097;-47
2022/12/02 00:55:00;;;;;;;50.50;28.70;;;3.10;99.90;;;;;;5056267;28;20635;-43
2022/12/02 00:57:26;;;;;;;57.22;30.48;;;3.10;99.90;;;;;;5056469;28;20131;-46
2022/12/02 00:59:52;;;;;;;55.88;30.40;;;3.10;99.90;;;;;;5056439;28;20076;-47
2022/12/02 01:02:17;;;;;;;54.95;29.65;;;3.10;99.90;;;;;;5056116;28;20036;-43
2022/12/02 01:04:43;;;;;;;50.17;28.73;;;3.10;99.90;;;;;;5055855;28;20083;-43
2022/12/02 01:07:09;;;;;;;55.53;29.58;;;3.10;99.90;;;;;;5055226;28;20415;-42
2022/12/02 01:09:35;;;;;;;54.88;29.77;;;3.00;99.90;;;;;;5055044;28;20102;-47
2022/12/02 01:12:01;;;;;;;60.05;31.60;;;3.00;99.90;;;;;;5055822;28;20048;-51
2022/12/02 01:14:26;;;;;;;57.05;30.98;;;3.00;99.90;;;;;;5056575;28;20053;-46
2022/12/02 01:16:52;;;;;;;54.83;30.25;;;3.00;99.90;;;;;;5060066;28;20051;-45
2022/12/02 01:19:18;;;;;;;60.67;30.30;;;3.00;99.90;;;;;;5058886;28;20052;-43
2022/12/02 01:21:43;;;;;;;57.40;31.00;;;3.00;99.90;;;;;;5059691;28;20049;-45
2022/12/02 01:24:09;;;;;;;60.03;30.55;;;3.00;99.90;;;;;;5059180;28;20561;-42
2022/12/02 01:26:34;;;;;;;57.10;30.25;;;3.00;99.90;;;;;;5059948;28;20095;-44
2022/12/02 01:29:00;;;;;;;52.63;29.48;;;3.00;99.90;;;;;;5058782;28;20141;-47
2022/12/02 01:31:26;;;;;;;61.55;31.60;;;3.00;99.90;;;;;;5060343;28;20130;-48
2022/12/02 01:33:52;;;;;;;58.15;31.17;;;3.00;99.90;;;;;;5059527;28;20044;-46
2022/12/02 01:36:17;;;;;;;57.88;31.52;;;3.00;99.90;;;;;;5059881;28;20040;-43
2022/12/02 01:38:43;;;;;;;58.70;30.48;;;3.00;99.90;;;;;;5058881;28;20059;-42
2022/12/02 01:41:09;;;;;;;53.15;29.33;;;3.00;99.90;;;;;;5059740;28;20059;-45
2022/12/02 01:43:35;;;;;;;57.85;30.23;;;3.00;99.90;;;;;;5059697;28;20056;-41
2022/12/02 01:46:01;;;;;;;57.67;31.13;;;3.00;99.90;;;;;;5059419;28;20554;-47
2022/12/02 01:48:28;;;;;;;55.58;31.45;;;3.00;99.90;;;;;;5058878;28;20304;-48
2022/12/02 01:50:54;;;;;;;60.25;29.83;;;3.00;99.90;;;;;;5059869;28;20059;-45
2022/12/02 01:53:21;;;;;;;55.05;31.25;;;3.00;99.90;;;;;;5058862;28;20052;-43
2022/12/02 01:55:46;;;;;;;60.30;31.60;;;3.00;99.90;;;;;;5058810;28;20423;-46
2022/12/02 01:58:13;;;;;;;56.85;30.35;;;3.00;99.90;;;;;;5058350;28;20045;-48
2022/12/02 02:00:39;;;;;;;55.65;30.52;;;3.00;99.90;;;;;;5059692;28;20067;-45
2022/12/02 02:03:05;;;;;;;61.72;32.35;;;3.00;99.90;;;;;;5058909;28;20048;-42
2022/12/02 02:05:33;;;;;;;56.13;30.45;;;3.00;99.90;;;;;;5057604;28;20049;-51
2022/12/02 02:08:07;;;;;;;55.10;31.13;;;3.00;99.90;;;;;;5056717;28;20059;-43
2022/12/02 02:10:36;;;;;;;61.20;32.90;;;3.00;99.90;;;;;;5059618;28;20121;-45
2022/12/02 02:13:02;;;;;;;55.95;32.28;;;3.00;99.90;;;;;;5058483;28;20134;-45
2022/12/02 02:15:28;;;;;;;56.78;32.42;;;3.00;99.90;;;;;;5058755;28;20052;-44
2022/12/02 02:17:56;;;;;;;52.83;30.25;;;3.00;99.90;;;;;;5059170;28;20123;-41
2022/12/02 02:20:23;;;;;;;54.50;29.58;;;3.00;99.90;;;;;;5057212;28;20053;-48
2022/12/02 02:22:56;;;;;;;54.70;31.58;;;3.00;99.90;;;;;;5057390;28;20454;-45
2022/12/02 02:25:22;;;;;;;50.67;27.90;;;3.00;99.90;;;;;;5057396;28;20127;-49
2022/12/02 02:27:56;;;;;;;49.22;27.40;;;3.00;99.90;;;;;;5058470;28;20047;-43
2022/12/02 02:30:22;;;;;;;51.03;28.55;;;3.00;99.90;;;;;;5057804;28;20044;-45
2022/12/02 02:32:49;;;;;;;46.45;26.80;;;3.00;99.90;;;;;;5057527;28;20065;-46
2022/12/02 02:35:16;;;;;;;50.05;27.05;;;3.00;99.90;;;;;;5057605;28;20560;-41
2022/12/02 02:37:42;;;;;;;44.45;26.25;;;3.00;99.90;;;;;;5056874;28;20060;-48
2022/12/02 02:40:09;;;;;;;52.42;28.52;;;3.00;99.90;;;;;;5058604;28;20044;-43
2022/12/02 02:42:35;;;;;;;44.90;26.60;;;3.00;99.90;;;;;;5058693;28;20045;-45
2022/12/02 02:45:02;;;;;;;49.22;26.27;;;3.00;99.90;;;;;;5058124;28;20593;-47
2022/12/02 02:47:27;;;;;;;51.50;27.08;;;3.00;99.90;;;;;;5058461;28;20048;-44
2022/12/02 02:49:53;;;;;;;49.20;27.55;;;3.00;99.90;;;;;;5058867;28;20044;-41
2022/12/02 02:52:19;;;;;;;47.88;25.15;;;3.00;99.90;;;;;;5054972;28;20573;-43
2022/12/02 02:54:44;;;;;;;45.53;25.45;;;2.90;99.90;;;;;;5050757;28;20356;-45
2022/12/02 02:57:10;;;;;;;46.28;26.13;;;2.90;99.90;;;;;;5058530;28;20163;-42
2022/12/02 02:59:38;;;;;;;43.30;24.88;;;2.90;99.90;;;;;;5058167;28;20044;-47
2022/12/02 03:02:07;;;;;;;44.33;25.65;;;2.90;99.90;;;;;;5045136;28;20056;-43
2022/12/02 03:04:33;;;;;;;45.30;25.75;;;2.90;99.90;;;;;;5057090;28;20044;-47
2022/12/02 03:06:59;;;;;;;44.50;25.55;;;2.90;99.90;;;;;;5056252;28;20048;-43
2022/12/02 03:09:25;;;;;;;42.92;26.10;;;2.90;99.90;;;;;;5057888;28;20518;-44
2022/12/02 03:11:52;;;;;;;40.42;23.58;;;2.90;99.90;;;;;;5057301;28;20055;-41
2022/12/02 03:14:20;;;;;;;42.60;23.30;;;2.80;99.90;;;;;;5057263;28;20067;-43
2022/12/02 03:16:46;;;;;;;36.30;20.60;;;2.90;99.90;;;;;;5058126;28;20052;-42
2022/12/02 03:19:13;;;;;;;38.33;20.17;;;2.80;99.90;;;;;;5057062;28;20127;-45
2022/12/02 03:21:39;;;;;;;32.33;18.92;;;2.80;99.90;;;;;;5056160;28;20348;-46
2022/12/02 03:24:05;;;;;;;37.00;19.83;;;2.80;99.90;;;;;;5057647;28;20454;-43
2022/12/02 03:26:32;;;;;;;35.22;19.38;;;2.80;99.90;;;;;;5058388;28;20053;-46
2022/12/02 03:28:59;;;;;;;35.95;19.83;;;2.80;99.90;;;;;;5057661;28;20044;-45
2022/12/02 03:31:26;;;;;;;40.92;21.42;;;2.80;99.90;;;;;;5058238;28;20071;-43
2022/12/02 03:33:53;;;;;;;36.38;19.67;;;2.70;99.90;;;;;;5056832;28;20572;-49
2022/12/02 03:36:19;;;;;;;42.88;21.55;;;2.70;99.90;;;;;;5056849;28;20047;-44
2022/12/02 03:38:45;;;;;;;37.92;20.25;;;2.70;99.90;;;;;;5056517;28;20774;-43
2022/12/02 03:41:11;;;;;;;34.58;20.35;;;2.70;99.90;;;;;;5047478;28;20060;-50
2022/12/02 03:43:37;;;;;;;40.85;22.02;;;2.70;99.90;;;;;;5051708;28;20390;-43
2022/12/02 03:46:05;;;;;;;39.67;22.10;;;2.70;99.90;;;;;;5056609;28;20232;-45
2022/12/02 03:48:32;;;;;;;40.42;22.42;;;2.70;99.90;;;;;;5054523;28;20511;-42
2022/12/02 03:50:58;;;;;;;43.35;22.70;;;2.70;99.90;;;;;;5057476;28;20059;-42
2022/12/02 03:53:24;;;;;;;39.70;22.35;;;2.70;99.90;;;;;;5057043;28;20044;-47
2022/12/02 03:55:49;;;;;;;44.47;25.17;;;2.70;99.90;;;;;;5056478;28;20670;-44
2022/12/02 03:58:15;;;;;;;45.40;22.15;;;2.70;99.90;;;;;;5055902;28;20053;-44
2022/12/02 04:00:41;;;;;;;37.45;22.38;;;2.70;99.90;;;;;;5056925;28;20079;-44
2022/12/02 04:03:07;;;;;;;40.47;22.00;;;2.70;99.90;;;;;;5056379;28;20076;-47
2022/12/02 04:05:33;;;;;;;43.72;24.63;;;2.70;99.90;;;;;;5056431;28;20045;-42
2022/12/02 04:07:58;;;;;;;43.38;24.67;;;2.70;99.90;;;;;;5056458;28;20089;-43
2022/12/02 04:10:24;;;;;;;45.85;24.17;;;2.70;99.90;;;;;;5057561;28;20064;-49
2022/12/02 04:12:50;;;;;;;46.50;25.05;;;2.70;99.90;;;;;;5056590;28;20063;-42
2022/12/02 04:15:15;;;;;;;43.33;24.30;;;2.70;99.90;;;;;;5055815;28;20052;-40
2022/12/02 04:17:41;;;;;;;47.28;24.90;;;2.70;99.90;;;;;;5056100;28;20209;-46
2022/12/02 04:20:08;;;;;;;42.78;24.15;;;2.70;99.90;;;;;;5052323;28;20048;-46
2022/12/02 04:22:34;;;;;;;45.42;23.60;;;2.70;99.90;;;;;;5056581;28;20071;-44
2022/12/02 04:25:01;;;;;;;45.10;24.65;;;2.70;99.90;;;;;;5056168;28;20432;-49
2022/12/02 04:27:27;;;;;;;42.53;23.23;;;2.60;99.90;;;;;;5054659;28;20075;-49
2022/12/02 04:29:53;;;;;;;44.92;22.98;;;2.70;99.90;;;;;;5056575;28;20080;-45
2022/12/02 04:32:19;;;;;;;46.28;23.88;;;2.60;99.90;;;;;;5055909;28;20141;-41
2022/12/02 04:34:44;;;;;;;49.40;24.95;;;2.60;99.90;;;;;;5055614;28;20462;-47
2022/12/02 04:37:10;;;;;;;45.28;25.17;;;2.60;99.90;;;;;;5055402;28;20059;-44
2022/12/02 04:39:36;;;;;;;43.90;24.73;;;2.60;99.90;;;;;;5055407;28;20044;-44
2022/12/02 04:42:01;;;;;;;45.00;23.38;;;2.70;99.90;;;;;;5043190;28;20083;-45
2022/12/02 04:44:27;;;;;;;40.22;22.40;;;2.60;99.90;;;;;;5054195;28;20044;-49
2022/12/02 04:46:53;;;;;;;44.55;24.15;;;2.60;99.90;;;;;;5055424;28;20054;-43
2022/12/02 04:49:20;;;;;;;45.97;24.45;;;2.60;99.90;;;;;;5054627;28;20048;-50
2022/12/02 04:51:45;;;;;;;41.20;23.45;;;2.60;99.90;;;;;;5055799;28;20063;-42
2022/12/02 04:54:11;;;;;;;47.08;25.60;;;2.60;99.90;;;;;;5055017;28;20398;-46
2022/12/02 04:56:37;;;;;;;41.42;23.55;;;2.60;99.90;;;;;;5056053;28;20045;-46
2022/12/02 04:59:02;;;;;;;44.85;24.30;;;2.60;99.90;;;;;;5055675;28;20490;-45
2022/12/02 05:01:28;;;;;;;45.58;23.98;;;2.60;99.90;;;;;;5055638;28;20089;-45
2022/12/02 05:03:54;;;;;;;44.22;24.17;;;2.60;99.90;;;;;;5054514;28;20127;-47
2022/12/02 05:06:19;;;;;;;45.22;24.98;;;2.60;99.90;;;;;;5054828;28;20136;-43
2022/12/02 05:08:45;;;;;;;46.20;24.92;;;2.60;99.90;;;;;;5055200;28;20508;-43
2022/12/02 05:11:11;;;;;;;47.58;25.73;;;2.60;99.90;;;;;;5056028;28;20040;-46
2022/12/02 05:13:36;;;;;;;47.97;26.67;;;2.60;99.90;;;;;;5055576;28;20047;-42
2022/12/02 05:16:02;;;;;;;51.08;25.83;;;2.60;99.90;;;;;;5055429;28;20126;-46
2022/12/02 05:18:28;;;;;;;49.28;27.50;;;2.60;99.90;;;;;;5055779;28;20469;-44
2022/12/02 05:20:53;;;;;;;52.08;26.27;;;2.60;99.90;;;;;;5056486;28;20102;-45
2022/12/02 05:23:19;;;;;;;49.53;25.77;;;2.60;99.90;;;;;;5055504;28;20373;-46
2022/12/02 05:25:44;;;;;;;51.67;28.02;;;2.50;99.90;;;;;;5055255;28;20048;-42
2022/12/02 05:28:10;;;;;;;46.63;25.40;;;2.50;99.90;;;;;;5055665;28;20156;-43
2022/12/02 05:30:36;;;;;;;50.65;27.52;;;2.50;99.90;;;;;;5054071;28;20056;-49
2022/12/02 05:33:01;;;;;;;52.70;28.45;;;2.50;99.90;;;;;;5055770;28;20052;-45
2022/12/02 05:35:27;;;;;;;51.60;27.85;;;2.50;99.90;;;;;;5055141;28;20055;-49
2022/12/02 05:37:53;;;;;;;56.15;26.50;;;2.50;99.90;;;;;;5055040;28;20119;-44
2022/12/02 05:40:18;;;;;;;46.55;25.98;;;2.50;99.90;;;;;;5053996;28;20127;-45
2022/12/02 05:42:44;;;;;;;49.70;27.88;;;2.50;99.90;;;;;;5044165;28;20132;-45
2022/12/02 05:45:21;;;;;;;47.45;25.80;;;2.50;99.90;;;;;;5054412;28;20058;-43
2022/12/02 05:47:51;;;;;;;53.40;28.33;;;2.50;99.90;;;;;;5055080;28;20059;-46
2022/12/02 05:50:17;;;;;;;51.28;25.90;;;2.50;99.90;;;;;;5055380;28;20385;-51
2022/12/02 05:52:43;;;;;;;53.13;28.02;;;2.50;99.90;;;;;;5049240;28;20053;-47
2022/12/02 05:55:22;;;;;;;48.60;25.27;;;2.50;99.90;;;;;;5050453;28;20055;-46
2022/12/02 05:57:48;;;;;;;50.10;27.50;;;2.50;99.90;;;;;;5054890;28;20861;-41
2022/12/02 06:00:16;;;;;;;50.40;26.23;;;2.50;99.90;;;;;;5057673;28;20044;-42
2022/12/02 06:02:48;;;;;;;54.50;27.35;;;2.40;99.90;;;;;;5058777;28;20425;-48
2022/12/02 06:05:18;;;;;;;53.22;27.35;;;2.40;99.90;;;;;;5057205;28;20052;-46
2022/12/02 06:07:45;;;;;;;56.97;28.92;;;2.40;99.90;;;;;;5058411;28;20156;-43
2022/12/02 06:10:27;;;;;;;54.58;27.10;;;2.40;99.90;;;;;;5046261;28;20521;-41
2022/12/02 06:12:57;;;;;;;55.33;26.17;;;2.40;99.90;;;;;;5058532;28;20139;-46
2022/12/02 06:15:22;;;;;;;57.63;28.70;;;2.40;99.90;;;;;;5058884;28;20055;-46
2022/12/02 06:17:49;;;;;;;57.10;27.33;;;2.40;99.90;;;;;;5058400;28;20045;-43
2022/12/02 06:20:24;;;;;;;58.33;28.85;;;2.40;99.90;;;;;;5052291;28;20041;-45
2022/12/02 06:22:50;;;;;;;60.63;29.73;;;2.40;99.90;;;;;;5058237;28;20789;-43
2022/12/02 06:25:23;;;;;;;56.22;28.75;;;2.40;99.90;;;;;;5057687;28;20053;-40
2022/12/02 06:27:50;;;;;;;62.25;29.08;;;2.40;99.90;;;;;;5058000;28;20812;-43
2022/12/02 06:30:16;;;;;;;63.40;30.25;;;2.40;99.90;;;;;;5058431;28;20303;-43
2022/12/02 06:32:51;;;;;;;58.75;28.70;;;2.40;99.90;;;;;;5057853;28;20102;-46
2022/12/02 06:35:25;;;;;;;61.75;29.92;;;2.40;99.90;;;;;;5057044;28;20082;-45
2022/12/02 06:37:55;;;;;;;67.00;29.48;;;2.30;99.90;;;;;;5058149;28;20067;-42
2022/12/02 06:40:32;;;;;;;69.18;30.63;;;2.30;99.90;;;;;;5057354;28;20388;-46
2022/12/02 06:43:00;;;;;;;64.28;29.75;;;2.30;99.90;;;;;;5049778;28;20045;-43
2022/12/02 06:45:31;;;;;;;66.95;30.52;;;2.30;99.90;;;;;;5058063;28;20052;-43
2022/12/02 06:48:02;;;;;;;64.25;30.60;;;2.30;99.90;;;;;;5057997;28;20455;-50
2022/12/02 06:50:42;;;;;;;59.83;29.40;;;2.30;99.90;;;;;;5058124;28;20052;-45
2022/12/02 06:53:24;;;;;;;63.47;29.50;;;2.30;99.90;;;;;;5047102;28;20052;-45
2022/12/02 06:55:55;;;;;;;48.30;23.30;;;2.30;99.90;;;;;;5046777;28;20056;-41
2022/12/02 06:58:37;;;;;;;62.30;29.85;;;2.30;99.90;;;;;;5057021;28;20438;-47
2022/12/02 07:01:23;;;;;;;64.07;28.60;;;2.30;99.90;;;;;;5056918;28;20048;-41
2022/12/02 07:04:03;;;;;;;66.53;30.52;;;2.30;99.90;;;;;;5055007;28;20575;-48
2022/12/02 07:06:31;;;;;;;67.43;30.02;;;2.30;99.90;;;;;;5056656;28;20136;-48
2022/12/02 07:08:59;;;;;;;59.55;28.40;;;2.30;99.90;;;;;;5057911;28;20056;-49
2022/12/02 07:14:35;;;;;;;58.75;28.58;;;2.20;99.90;;;;;;5055216;28;20575;-48
2022/12/02 07:17:02;;;;;;;;;;;2.20;99.90;;;;;;5056426;28;20071;-44
2022/12/02 07:19:39;;;;;;;68.47;29.75;;;2.20;99.90;;;;;;5053453;28;20298;-47
2022/12/02 07:22:21;;;;;;;68.63;31.02;;;2.20;99.90;;;;;;5057984;28;20056;-42
2022/12/02 07:24:54;;;;;;;64.28;31.33;;;2.10;99.90;;;;;;5056837;28;20052;-42
2022/12/02 07:27:30;;;;;;;62.08;29.13;;;2.10;99.90;;;;;;5056401;28;20048;-46
2022/12/02 07:29:57;;;;;;;65.85;30.00;;;2.10;99.90;;;;;;5057420;28;20155;-45
2022/12/02 07:32:23;;;;;;;65.20;29.60;;;2.10;99.90;;;;;;5057458;28;20063;-43
2022/12/02 07:34:49;;;;;;;61.55;28.48;;;2.10;99.90;;;;;;5055488;28;20041;-48
2022/12/02 07:37:14;;;;;;;68.53;31.90;;;2.10;99.90;;;;;;5054868;28;20056;-48
2022/12/02 07:39:40;;;;;;;67.78;30.02;;;2.10;99.90;;;;;;5057050;28;20246;-45
2022/12/02 07:42:06;;;;;;;66.68;30.67;;;2.00;99.90;;;;;;5049548;28;20056;-46
2022/12/02 07:44:32;;;;;;;62.17;29.38;;;2.10;99.90;;;;;;5048813;28;20590;-43
2022/12/02 07:46:57;;;;;;;65.90;29.63;;;2.00;99.90;;;;;;5050825;28;20049;-45
2022/12/02 07:49:23;;;;;;;67.05;30.73;;;2.00;99.90;;;;;;5056522;28;20365;-42
2022/12/02 07:51:49;;;;;;;56.80;26.73;;;2.00;99.90;;;;;;5057522;28;20317;-46
2022/12/02 07:54:14;;;;;;;65.53;30.10;;;2.00;99.90;;;;;;5056005;28;20075;-45
2022/12/02 07:56:40;;;;;;;67.03;30.73;;;2.00;99.90;;;;;;5056516;28;20410;-44
2022/12/02 07:59:06;;;;;;;69.50;31.33;;;2.00;99.90;;;;;;5056086;28;20058;-48
2022/12/02 08:01:31;;;;;;;64.20;29.40;;;2.00;99.90;;;;;;5056055;28;20159;-45
2022/12/02 08:03:57;;;;;;;67.45;28.65;;;2.00;99.90;;;;;;5049875;28;20055;-46
2022/12/02 08:06:23;;;;;;;68.40;29.50;;;2.00;99.90;;;;;;5053640;28;20044;-42
2022/12/02 08:08:48;;;;;;;73.50;32.80;;;2.00;99.90;;;;;;5055171;28;20044;-41
2022/12/02 08:11:14;;;;;;;71.38;31.50;;;2.10;99.90;;;;;;5055625;28;20083;-44
2022/12/02 08:13:40;;;;;;;73.72;31.10;;;2.10;99.90;;;;;;5055750;28;20044;-43
2022/12/02 08:16:07;;;;;;;69.82;32.95;;;2.10;99.90;;;;;;5054759;28;20053;-49
2022/12/02 08:18:33;;;;;;;72.38;31.10;;;2.10;99.90;;;;;;5055085;28;20076;-43
2022/12/02 08:20:59;;;;;;;70.88;31.38;;;2.20;99.90;;;;;;5054149;28;20045;-41
2022/12/02 08:23:24;;;;;;;70.15;32.58;;;2.10;99.90;;;;;;5055095;28;20491;-50
2022/12/02 08:25:50;;;;;;;68.93;31.45;;;2.10;99.90;;;;;;5055330;28;20577;-41
2022/12/02 08:28:16;;;;;;;73.20;32.45;;;2.10;99.90;;;;;;5053790;28;20431;-45
2022/12/02 08:30:41;;;;;;;78.00;35.15;;;2.20;99.90;;;;;;5054331;28;20778;-44
2022/12/02 08:33:07;;;;;;;74.03;31.60;;;2.20;99.90;;;;;;5054988;28;20052;-48
2022/12/02 08:35:33;;;;;;;61.42;30.27;;;2.30;99.90;;;;;;5054534;28;20458;-45
2022/12/02 08:37:59;;;;;;;68.20;30.83;;;2.30;99.90;;;;;;5037073;28;20609;-42
2022/12/02 08:40:25;;;;;;;67.68;31.88;;;2.40;99.90;;;;;;5053861;28;20445;-42
2022/12/02 08:42:50;;;;;;;72.47;33.70;;;2.50;99.90;;;;;;5055268;28;20045;-47
2022/12/02 08:45:16;;;;;;;61.85;29.85;;;2.50;99.90;;;;;;5054430;28;20554;-48
2022/12/02 08:47:42;;;;;;;64.05;31.60;;;2.60;99.90;;;;;;5054547;28;20059;-42
2022/12/02 08:50:08;;;;;;;63.38;29.83;;;2.60;99.90;;;;;;5056110;28;20399;-43
2022/12/02 08:52:34;;;;;;;70.80;31.55;;;2.70;99.90;;;;;;5054582;28;20399;-45
2022/12/02 08:55:00;;;;;;;67.20;30.42;;;2.70;99.90;;;;;;5055267;28;20105;-45
2022/12/02 08:57:25;;;;;;;69.30;33.42;;;2.70;99.90;;;;;;5056422;28;20044;-41
2022/12/02 08:59:51;;;;;;;74.53;34.13;;;2.70;99.90;;;;;;5054291;28;20414;-48
2022/12/02 09:02:17;;;;;;;69.35;32.92;;;2.70;99.90;;;;;;5055745;28;20280;-45
2022/12/02 09:04:42;;;;;;;65.63;32.65;;;2.70;99.90;;;;;;5055273;28;20048;-42
2022/12/02 09:07:08;;;;;;;65.25;32.45;;;2.70;99.90;;;;;;5053519;28;20410;-45
2022/12/02 09:09:34;;;;;;;69.82;31.92;;;2.70;99.90;;;;;;5055230;28;20052;-48
2022/12/02 09:12:01;;;;;;;65.07;31.02;;;2.70;99.90;;;;;;5055603;28;20147;-49
2022/12/02 09:14:27;;;;;;;68.32;33.03;;;2.70;99.90;;;;;;5055280;28;20048;-47
2022/12/02 09:16:53;;;;;;;59.63;27.42;;;2.70;99.90;;;;;;5055652;28;20118;-43
2022/12/02 09:19:18;;;;;;;53.03;27.02;;;2.60;99.90;;;;;;5054289;28;20444;-41
2022/12/02 09:21:44;;;;;;;59.13;28.73;;;2.60;99.90;;;;;;5055977;28;20044;-46
2022/12/02 09:24:10;;;;;;;52.80;26.58;;;2.60;99.90;;;;;;5054165;28;20041;-42
2022/12/02 09:26:36;;;;;;;55.83;26.92;;;2.60;99.90;;;;;;5055467;28;20387;-48
2022/12/02 09:29:01;;;;;;;44.15;24.33;;;2.60;99.90;;;;;;5055161;28;20045;-46
2022/12/02 09:31:27;;;;;;;48.72;23.10;;;2.50;99.90;;;;;;5053321;28;20152;-45
2022/12/02 09:33:53;;;;;;;47.70;22.88;;;2.60;99.90;;;;;;5054629;28;20159;-44
2022/12/02 09:36:18;;;;;;;46.38;23.55;;;2.60;99.90;;;;;;5057269;28;20067;-46
2022/12/02 09:38:44;;;;;;;43.70;22.65;;;2.60;99.90;;;;;;5057949;28;20045;-46
2022/12/02 09:41:09;;;;;;;46.72;23.67;;;2.60;99.90;;;;;;5058702;28;20470;-45
2022/12/02 09:43:35;;;;;;;46.38;22.15;;;2.60;99.90;;;;;;5057901;28;20041;-45
2022/12/02 09:46:01;;;;;;;50.08;23.60;;;2.60;99.90;;;;;;5058068;28;20050;-43
2022/12/02 09:48:28;;;;;;;50.63;24.85;;;2.50;99.90;;;;;;5058053;28;20147;-50
2022/12/02 09:50:54;;;;;;;45.72;21.98;;;2.60;99.90;;;;;;5058586;28;20185;-45
2022/12/02 09:53:28;;;;;;;46.58;23.65;;;2.60;99.90;;;;;;5056785;28;20054;-42
2022/12/02 09:55:54;;;;;;;52.60;24.10;;;2.60;99.90;;;;;;5058627;28;20126;-46
2022/12/02 09:58:20;;;;;;;53.92;25.92;;;2.70;99.90;;;;;;5057204;28;20064;-43
2022/12/02 10:00:49;;;;;;;44.83;22.20;;;2.70;99.90;;;;;;5057930;28;20074;-47
2022/12/02 10:03:17;;;;;;;51.58;24.33;;;2.70;99.90;;;;;;5057223;28;20053;-42
2022/12/02 10:05:43;;;;;;;45.58;22.73;;;2.60;99.90;;;;;;5056445;28;20040;-48
2022/12/02 10:08:26;;;;;;;48.20;23.13;;;2.60;99.90;;;;;;5057734;28;20048;-45
2022/12/02 10:10:55;;;;;;;48.17;23.43;;;2.70;99.90;;;;;;5058726;28;20060;-47
2022/12/02 10:13:23;;;;;;;49.05;23.13;;;2.60;99.90;;;;;;5057194;28;20286;-46
2022/12/02 10:15:49;;;;;;;49.33;23.55;;;2.70;99.90;;;;;;5055668;28;20091;-45
2022/12/02 10:18:19;;;;;;;48.35;24.05;;;2.70;99.90;;;;;;5056772;28;20051;-42
2022/12/02 10:20:46;;;;;;;50.42;24.42;;;2.70;99.90;;;;;;5056945;28;20057;-42
2022/12/02 10:23:19;;;;;;;53.63;24.52;;;2.70;99.90;;;;;;5057116;28;20129;-49
2022/12/02 10:25:46;;;;;;;;;;;2.80;99.90;;;;;;5057938;28;20135;-43
2022/12/02 10:28:32;;;;;;;43.25;21.98;;;2.80;99.90;;;;;;5056888;28;20013;-46
2022/12/02 10:31:11;;;;;;;47.53;24.58;;;2.80;99.90;;;;;;5057426;28;20047;-42
2022/12/02 10:33:57;;;;;;;46.13;24.42;;;2.80;99.90;;;;;;5057339;28;20102;-48
2022/12/02 10:36:38;;;;;;;55.15;36.10;;;2.90;99.90;;;;;;5044510;28;20048;-45
2022/12/02 10:39:22;;;;;;;50.88;30.00;;;3.00;99.90;;;;;;5057846;28;20040;-43
2022/12/02 10:42:12;;;;;;;48.20;32.38;;;3.10;99.90;;;;;;5058398;28;20064;-44
2022/12/02 10:44:43;;;;;;;47.67;23.77;;;3.20;99.90;;;;;;5058089;28;20040;-46
2022/12/02 10:47:21;;;;;;;56.97;32.13;;;3.30;99.90;;;;;;5054723;28;20399;-43
2022/12/02 10:49:51;;;;;;;51.80;30.35;;;3.30;99.90;;;;;;5056738;28;20884;-47
2022/12/02 10:52:21;;;;;;;47.08;26.63;;;3.30;99.90;;;;;;5057964;28;20367;-44
2022/12/02 10:54:49;;;;;;;47.35;29.48;;;3.20;99.90;;;;;;5057134;28;20037;-41
2022/12/02 10:57:26;;;;;;;42.53;22.42;;;3.20;99.90;;;;;;5042937;28;20164;-42
2022/12/02 10:59:54;;;;;;;43.47;23.90;;;3.20;99.90;;;;;;5057601;28;20753;-44
2022/12/02 11:02:25;;;;;;;49.25;24.92;;;3.20;99.90;;;;;;5058066;28;20543;-44
2022/12/02 11:04:52;;;;;;;51.35;25.42;;;3.10;99.90;;;;;;5057831;28;20132;-45
2022/12/02 11:07:25;;;;;;;44.50;23.23;;;3.10;99.90;;;;;;5057427;28;20040;-46
2022/12/02 11:09:53;;;;;;;47.03;23.25;;;3.20;99.90;;;;;;5055851;28;20048;-42
2022/12/02 11:12:31;;;;;;;50.92;24.92;;;3.10;99.90;;;;;;5057605;28;20083;-44
2022/12/02 11:14:57;;;;;;;46.53;24.10;;;3.10;99.90;;;;;;5057174;28;20102;-51
2022/12/02 11:17:46;;;;;;;47.47;25.42;;;3.10;99.90;;;;;;5057055;28;20289;-45
2022/12/02 11:20:30;;;;;;;50.95;23.67;;;3.20;99.90;;;;;;5057684;28;20055;-45
2022/12/02 11:22:59;;;;;;;46.85;24.15;;;3.10;99.90;;;;;;5057104;28;20417;-44
2022/12/02 11:25:49;;;;;;;51.53;26.17;;;3.10;99.90;;;;;;5057779;28;20379;-44
2022/12/02 11:28:44;;;;;;;52.10;26.67;;;3.00;99.90;;;;;;5045980;28;20080;-41
2022/12/02 11:31:10;;;;;;;53.78;27.48;;;3.00;99.90;;;;;;5057650;28;20403;-44
2022/12/02 11:33:47;;;;;;;51.97;26.00;;;3.00;99.90;;;;;;5069959;28;20418;-48
2022/12/02 11:36:20;;;;;;;66.57;39.22;;;3.00;99.90;;;;;;5048609;28;20048;-46
2022/12/02 11:38:51;;;;;;;54.20;27.98;;;3.00;99.90;;;;;;5055896;28;20489;-44
2022/12/02 11:41:26;;;;;;;52.75;27.67;;;3.00;99.90;;;;;;5048166;28;20068;-43
2022/12/02 11:44:20;;;;;;;56.50;28.23;;;3.00;99.90;;;;;;5055150;28;20446;-44
2022/12/02 11:46:56;;;;;;;56.78;29.40;;;3.10;99.90;;;;;;5056161;28;20465;-42
2022/12/02 11:49:39;;;;;;;53.95;28.20;;;3.00;99.90;;;;;;5055442;28;20053;-43
2022/12/02 11:52:07;;;;;;;54.10;27.27;;;3.00;99.90;;;;;;5056563;28;20044;-46
2022/12/02 11:54:38;;;;;;;51.45;25.77;;;3.00;99.90;;;;;;5056598;28;20044;-44
2022/12/02 11:57:04;;;;;;;53.92;24.88;;;3.00;99.90;;;;;;5055801;28;20526;-43
2022/12/02 11:59:32;;;;;;;51.15;26.30;;;3.10;99.90;;;;;;5056740;28;20502;-44
2022/12/02 12:02:15;;;;;;;57.63;28.98;;;3.10;99.90;;;;;;5055453;28;20075;-45
2022/12/02 12:04:41;;;;;;;56.17;29.97;;;3.10;99.90;;;;;;5055787;28;20128;-46
2022/12/02 12:07:08;;;;;;;59.38;29.05;;;3.10;99.90;;;;;;5053729;28;20132;-47
2022/12/02 12:09:34;;;;;;;55.28;29.05;;;3.10;99.90;;;;;;5053937;28;20043;-45
2022/12/02 12:12:18;;;;;;;54.60;27.50;;;3.10;99.90;;;;;;5056302;28;20048;-46
2022/12/02 12:15:04;;;;;;;54.95;28.23;;;3.10;99.90;;;;;;5055025;28;20526;-45
2022/12/02 12:17:48;;;;;;;50.28;26.30;;;3.00;99.90;;;;;;5054562;28;20204;-48
2022/12/02 12:20:13;;;;;;;53.58;28.70;;;3.10;99.90;;;;;;5054979;28;20319;-47
2022/12/02 12:22:40;;;;;;;53.72;27.27;;;3.00;99.90;;;;;;5055868;28;20372;-44
2022/12/02 12:25:40;;;;;;;50.30;26.73;;;3.00;99.90;;;;;;5056707;28;20044;-45
2022/12/02 12:28:33;;;;;;;48.83;26.50;;;3.00;99.90;;;;;;5044061;28;20456;-47
2022/12/02 12:31:00;;;;;;;52.08;28.88;;;3.00;99.90;;;;;;5054861;28;20087;-42
2022/12/02 12:33:27;;;;;;;47.45;25.88;;;3.00;99.90;;;;;;5053398;28;20060;-45
2022/12/02 12:35:54;;;;;;;53.47;28.23;;;2.90;99.90;;;;;;5054244;28;20056;-43
2022/12/02 12:38:22;;;;;;;51.38;28.27;;;2.90;99.90;;;;;;5055523;28;20072;-44
2022/12/02 12:40:47;;;;;;;52.38;27.98;;;2.80;99.90;;;;;;5052894;28;20435;-47
2022/12/02 12:43:14;;;;;;;56.22;27.83;;;2.80;99.90;;;;;;5055174;28;20059;-44
2022/12/02 12:45:39;;;;;;;98.70;57.75;;;2.80;99.90;;;;;;5055464;28;20140;-44
2022/12/02 12:48:05;;;;;;;56.63;33.05;;;2.80;99.90;;;;;;5055917;28;20048;-41
2022/12/02 12:50:31;;;;;;;55.53;30.70;;;2.80;99.90;;;;;;5055250;28;20465;-45